createdAt,value
2022-07-27T00:01:11.922Z,3.10
2022-07-27T00:03:39.382Z,3.20
2022-07-27T00:06:07.854Z,2.90
2022-07-27T00:08:35.492Z,2.97
2022-07-27T00:11:03.330Z,3.40
2022-07-27T00:13:31.627Z,3.53
2022-07-27T00:15:58.996Z,3.33
2022-07-27T00:18:26.307Z,3.25
2022-07-27T00:20:53.664Z,3.25
2022-07-27T00:23:21.099Z,3.45
2022-07-27T00:25:48.410Z,3.42
2022-07-27T00:28:15.809Z,3.75
2022-07-27T00:30:43.278Z,3.45
2022-07-27T00:33:10.682Z,4.25
2022-07-27T00:35:44.810Z,4.03
2022-07-27T00:38:12.274Z,4.00
2022-07-27T00:40:39.688Z,4.22
2022-07-27T00:43:07.056Z,4.22
2022-07-27T00:45:34.542Z,4.32
2022-07-27T00:48:01.882Z,4.30
2022-07-27T00:50:29.309Z,4.10
2022-07-27T00:52:56.615Z,4.00
2022-07-27T00:55:25.323Z,4.70
2022-07-27T00:57:58.372Z,4.55
2022-07-27T01:00:29.760Z,4.18
2022-07-27T01:02:57.915Z,5.38
2022-07-27T01:05:35.963Z,4.35
2022-07-27T01:08:06.934Z,5.05
2022-07-27T01:10:35.493Z,4.28
2022-07-27T01:13:03.198Z,4.60
2022-07-27T01:15:31.155Z,4.70
2022-07-27T01:18:10.350Z,4.68
2022-07-27T01:20:39.283Z,4.90
2022-07-27T01:23:06.643Z,4.35
2022-07-27T01:25:34.728Z,4.40
2022-07-27T01:28:02.059Z,4.25
2022-07-27T01:30:32.542Z,5.20
2022-07-27T01:33:04.309Z,5.32
2022-07-27T01:35:32.269Z,5.28
2022-07-27T01:37:59.910Z,4.78
2022-07-27T01:40:27.590Z,5.57
2022-07-27T01:42:55.240Z,4.75
2022-07-27T01:45:23.064Z,5.50
2022-07-27T01:47:50.700Z,5.05
2022-07-27T01:50:18.297Z,5.10
2022-07-27T01:52:46.072Z,5.88
2022-07-27T01:55:13.801Z,6.00
2022-07-27T01:57:41.488Z,5.28
2022-07-27T02:00:11.371Z,5.00
2022-07-27T02:02:41.710Z,4.93
2022-07-27T02:05:12.917Z,4.63
2022-07-27T02:07:41.403Z,4.80
2022-07-27T02:10:09.525Z,4.20
2022-07-27T02:12:37.450Z,4.18
2022-07-27T02:15:14.905Z,4.25
2022-07-27T02:17:46.785Z,4.13
2022-07-27T02:20:15.400Z,4.13
2022-07-27T02:22:43.820Z,4.15
2022-07-27T02:25:12.598Z,4.20
2022-07-27T02:27:43.703Z,3.70
2022-07-27T02:30:11.984Z,3.83
2022-07-27T02:32:40.746Z,4.07
2022-07-27T02:35:19.912Z,4.05
2022-07-27T02:37:48.801Z,3.83
2022-07-27T02:40:17.559Z,3.72
2022-07-27T02:42:45.968Z,3.80
2022-07-27T02:45:14.090Z,3.97
2022-07-27T02:47:41.746Z,4.10
2022-07-27T02:50:09.975Z,3.78
2022-07-27T02:52:38.183Z,4.07
2022-07-27T02:55:06.370Z,3.75
2022-07-27T02:57:35.966Z,4.10
2022-07-27T03:00:05.437Z,3.80
2022-07-27T03:02:34.175Z,3.70
2022-07-27T03:05:01.842Z,4.20
2022-07-27T03:07:29.717Z,4.43
2022-07-27T03:09:57.345Z,4.15
2022-07-27T03:12:24.970Z,4.43
2022-07-27T03:14:52.645Z,4.07
2022-07-27T03:17:20.333Z,3.85
2022-07-27T03:19:49.707Z,4.60
2022-07-27T03:22:17.435Z,4.00
2022-07-27T03:24:45.084Z,4.20
2022-07-27T03:27:13.270Z,4.47
2022-07-27T03:29:40.885Z,4.18
2022-07-27T03:32:08.518Z,3.88
2022-07-27T03:34:36.201Z,4.30
2022-07-27T03:37:03.807Z,4.50
2022-07-27T03:39:31.379Z,4.72
2022-07-27T03:41:59.021Z,4.93
2022-07-27T03:44:26.616Z,4.75
2022-07-27T03:46:54.292Z,4.40
2022-07-27T03:49:21.942Z,4.75
2022-07-27T03:51:49.629Z,4.90
2022-07-27T03:54:20.536Z,4.70
2022-07-27T03:56:48.246Z,4.97
2022-07-27T03:59:16.193Z,4.85
2022-07-27T04:01:44.057Z,4.88
2022-07-27T04:04:11.766Z,4.22
2022-07-27T04:06:39.383Z,4.03
2022-07-27T04:09:08.044Z,4.88
2022-07-27T04:11:43.434Z,4.70
2022-07-27T04:14:12.776Z,4.63
2022-07-27T04:16:41.376Z,5.00
2022-07-27T04:19:09.480Z,5.10
2022-07-27T04:21:37.981Z,4.35
2022-07-27T04:24:07.049Z,5.50
2022-07-27T04:26:34.796Z,5.25
2022-07-27T04:29:02.475Z,4.90
2022-07-27T04:31:30.162Z,4.45
2022-07-27T04:33:58.057Z,4.95
2022-07-27T04:36:25.722Z,5.72
2022-07-27T04:38:53.386Z,5.45
2022-07-27T04:41:20.993Z,5.65
2022-07-27T04:43:48.738Z,5.30
2022-07-27T04:46:16.483Z,5.90
2022-07-27T04:48:49.386Z,6.18
2022-07-27T04:51:17.852Z,6.65
2022-07-27T04:53:53.734Z,6.43
2022-07-27T04:56:27.130Z,6.40
2022-07-27T04:58:55.307Z,5.75
2022-07-27T05:01:23.394Z,5.70
2022-07-27T05:03:51.266Z,5.82
2022-07-27T05:06:19.026Z,6.22
2022-07-27T05:08:46.694Z,5.68
2022-07-27T05:11:14.418Z,5.75
2022-07-27T05:13:42.053Z,6.38
2022-07-27T05:16:10.902Z,5.47
2022-07-27T05:18:38.778Z,5.82
2022-07-27T05:21:06.660Z,4.70
2022-07-27T05:23:34.898Z,5.30
2022-07-27T05:26:02.791Z,5.38
2022-07-27T05:28:30.595Z,5.50
2022-07-27T05:30:58.307Z,5.18
2022-07-27T05:33:25.966Z,4.70
2022-07-27T05:35:53.647Z,5.40
2022-07-27T05:38:21.221Z,4.50
2022-07-27T05:40:49.004Z,4.88
2022-07-27T05:43:16.661Z,4.90
2022-07-27T05:45:44.463Z,5.28
2022-07-27T05:48:12.165Z,5.80
2022-07-27T05:50:39.869Z,4.72
2022-07-27T05:53:07.507Z,4.75
2022-07-27T05:55:35.159Z,5.28
2022-07-27T05:58:02.860Z,4.75
2022-07-27T06:00:30.537Z,4.53
2022-07-27T06:02:58.190Z,4.60
2022-07-27T06:05:26.353Z,5.18
2022-07-27T06:08:00.058Z,5.40
2022-07-27T06:10:29.534Z,5.57
2022-07-27T06:12:57.296Z,6.38
2022-07-27T06:15:25.303Z,6.05
2022-07-27T06:17:53.982Z,5.90
2022-07-27T06:20:23.050Z,5.47
2022-07-27T06:22:52.154Z,6.07
2022-07-27T06:25:20.364Z,5.72
2022-07-27T06:27:48.113Z,5.60
2022-07-27T06:30:17.291Z,6.30
2022-07-27T06:32:45.143Z,5.97
2022-07-27T06:35:14.633Z,5.78
2022-07-27T06:37:48.336Z,5.15
2022-07-27T06:40:15.978Z,4.82
2022-07-27T06:42:43.775Z,5.53
2022-07-27T06:45:11.970Z,4.85
2022-07-27T06:47:49.088Z,5.15
2022-07-27T06:50:18.530Z,6.07
2022-07-27T06:52:46.198Z,6.43
2022-07-27T06:55:14.196Z,5.75
2022-07-27T06:57:42.986Z,5.40
2022-07-27T07:00:11.815Z,5.97
2022-07-27T07:02:40.285Z,5.88
2022-07-27T07:05:07.983Z,5.68
2022-07-27T07:07:35.656Z,5.90
2022-07-27T07:10:03.337Z,6.03
2022-07-27T07:12:32.125Z,5.60
2022-07-27T07:15:00.413Z,5.93
2022-07-27T07:17:28.120Z,5.18
2022-07-27T07:19:55.785Z,5.40
2022-07-27T07:22:23.423Z,5.80
2022-07-27T07:24:51.091Z,5.53
2022-07-27T07:27:23.521Z,6.18
2022-07-27T07:29:51.197Z,6.38
2022-07-27T07:32:22.752Z,6.50
2022-07-27T07:34:50.479Z,7.60
2022-07-27T07:37:18.724Z,7.75
2022-07-27T07:39:47.078Z,8.13
2022-07-27T07:42:14.776Z,6.97
2022-07-27T07:44:42.951Z,6.00
2022-07-27T07:47:10.663Z,6.15
2022-07-27T07:49:40.088Z,5.93
2022-07-27T07:52:08.089Z,5.55
2022-07-27T07:54:35.770Z,5.30
2022-07-27T07:57:03.415Z,5.28
2022-07-27T07:59:31.044Z,6.10
2022-07-27T08:01:58.784Z,5.85
2022-07-27T08:04:26.483Z,5.25
2022-07-27T08:06:54.078Z,5.32
2022-07-27T08:09:26.713Z,4.47
2022-07-27T08:11:54.597Z,4.82
2022-07-27T08:14:23.324Z,5.18
2022-07-27T08:16:50.942Z,4.60
2022-07-27T08:19:18.746Z,4.97
2022-07-27T08:21:46.371Z,4.85
2022-07-27T08:24:14.147Z,4.78
2022-07-27T08:26:41.803Z,5.00
2022-07-27T08:29:13.693Z,4.38
2022-07-27T08:31:52.986Z,4.90
2022-07-27T08:34:21.406Z,4.88
2022-07-27T08:36:49.066Z,4.70
2022-07-27T08:39:52.513Z,4.32
2022-07-27T08:42:05.279Z,4.30
2022-07-27T08:44:34.220Z,4.15
2022-07-27T08:47:03.054Z,4.10
2022-07-27T08:49:42.371Z,4.75
2022-07-27T08:52:11.253Z,4.72
2022-07-27T08:54:40.244Z,4.78
2022-07-27T08:57:11.633Z,5.00
2022-07-27T08:59:39.308Z,5.00
2022-07-27T09:02:10.968Z,4.70
2022-07-27T09:07:06.258Z,4.47
2022-07-27T09:09:46.846Z,5.20
2022-07-27T09:12:14.582Z,4.45
2022-07-27T09:14:43.277Z,4.65
2022-07-27T09:20:17.750Z,4.53
2022-07-27T09:22:52.952Z,4.18
2022-07-27T09:25:33.094Z,5.53
2022-07-27T09:28:09.365Z,4.70
2022-07-27T09:30:42.245Z,4.43
2022-07-27T09:33:10.595Z,4.57
2022-07-27T09:35:38.414Z,4.43
2022-07-27T09:38:17.498Z,4.32
2022-07-27T09:40:46.249Z,3.95
2022-07-27T09:44:28.748Z,4.22
2022-07-27T09:46:08.127Z,4.00
2022-07-27T09:48:36.340Z,3.90
2022-07-27T09:51:32.837Z,3.80
2022-07-27T09:53:56.695Z,4.13
2022-07-27T09:56:28.438Z,4.40
2022-07-27T09:58:57.712Z,4.43
2022-07-27T10:01:30.851Z,5.13
2022-07-27T10:04:00.406Z,4.82
2022-07-27T10:06:28.732Z,5.43
2022-07-27T10:08:57.013Z,4.50
2022-07-27T10:11:24.937Z,4.22
2022-07-27T10:13:53.928Z,4.15
2022-07-27T10:16:29.127Z,4.47
2022-07-27T10:19:03.845Z,4.40
2022-07-27T10:21:37.539Z,4.00
2022-07-27T10:24:06.923Z,4.00
2022-07-27T10:26:38.591Z,3.65
2022-07-27T10:31:34.806Z,4.15
2022-07-27T10:34:03.847Z,4.63
2022-07-27T10:36:31.512Z,4.30
2022-07-27T10:39:00.223Z,3.97
2022-07-27T10:41:28.912Z,3.60
2022-07-27T10:44:17.561Z,4.57
2022-07-27T10:46:46.598Z,4.50
2022-07-27T10:49:29.440Z,4.75
2022-07-27T10:51:58.334Z,4.13
2022-07-27T10:54:32.491Z,3.85
2022-07-27T10:57:00.984Z,3.95
2022-07-27T11:02:47.963Z,4.20
2022-07-27T11:05:57.982Z,4.10
2022-07-27T11:08:35.283Z,4.10
2022-07-27T11:10:51.009Z,4.00
2022-07-27T11:13:19.378Z,4.55
2022-07-27T11:16:15.572Z,3.97
2022-07-27T11:18:45.231Z,4.30
2022-07-27T11:21:19.080Z,3.60
2022-07-27T11:23:52.051Z,3.80
2022-07-27T11:26:20.418Z,4.15
2022-07-27T11:28:48.245Z,4.30
2022-07-27T11:31:27.624Z,3.80
2022-07-27T11:34:04.272Z,3.45
2022-07-27T11:36:37.839Z,3.58
2022-07-27T11:39:06.789Z,4.20
2022-07-27T11:42:03.129Z,4.05
2022-07-27T11:44:23.284Z,3.45
2022-07-27T11:46:52.940Z,3.17
2022-07-27T11:49:26.834Z,3.35
2022-07-27T11:51:55.619Z,3.50
2022-07-27T11:54:24.175Z,3.63
2022-07-27T11:57:12.594Z,3.92
2022-07-27T11:59:41.298Z,3.72
2022-07-27T12:02:20.206Z,3.40
2022-07-27T12:04:51.903Z,3.85
2022-07-27T12:07:21.927Z,3.40
2022-07-27T12:09:49.847Z,3.60
2022-07-27T12:12:23.714Z,3.20
2022-07-27T12:14:54.215Z,3.95
2022-07-27T12:17:27.817Z,3.78
2022-07-27T12:19:55.519Z,3.10
2022-07-27T12:22:24.548Z,3.40
2022-07-27T12:24:52.205Z,3.72
2022-07-27T12:27:21.865Z,3.38
2022-07-27T12:30:10.141Z,3.90
2022-07-27T12:32:39.397Z,3.72
2022-07-27T12:35:17.318Z,3.78
2022-07-27T12:37:45.397Z,3.60
2022-07-27T12:40:17.543Z,3.58
2022-07-27T12:42:46.234Z,3.42
2022-07-27T12:45:15.354Z,3.08
2022-07-27T12:47:43.109Z,3.85
2022-07-27T12:50:12.646Z,4.40
2022-07-27T12:52:44.586Z,4.45
2022-07-27T12:55:15.926Z,4.32
2022-07-27T12:57:55.774Z,3.97
2022-07-27T13:00:29.361Z,4.07
2022-07-27T13:03:01.035Z,3.92
2022-07-27T13:05:28.776Z,4.03
2022-07-27T13:07:56.641Z,3.80
2022-07-27T13:10:24.253Z,3.55
2022-07-27T13:12:52.417Z,4.10
2022-07-27T13:15:20.071Z,4.07
2022-07-27T13:17:48.251Z,3.58
2022-07-27T13:20:17.087Z,3.92
2022-07-27T13:22:45.334Z,3.83
2022-07-27T13:25:16.067Z,3.88
2022-07-27T13:27:45.020Z,3.53
2022-07-27T13:30:14.284Z,3.88
2022-07-27T13:32:42.530Z,4.00
2022-07-27T13:35:12.692Z,4.00
2022-07-27T13:37:40.545Z,4.43
2022-07-27T13:40:09.125Z,4.28
2022-07-27T13:42:36.777Z,4.40
2022-07-27T13:45:09.698Z,4.00
2022-07-27T13:47:38.596Z,3.70
2022-07-27T13:50:12.099Z,4.07
2022-07-27T13:52:46.125Z,4.10
2022-07-27T13:55:14.816Z,4.10
2022-07-27T13:57:42.548Z,3.90
2022-07-27T14:00:10.497Z,4.22
2022-07-27T14:02:39.535Z,4.07
2022-07-27T14:05:08.625Z,3.45
2022-07-27T14:07:36.456Z,3.72
2022-07-27T14:10:23.229Z,4.10
2022-07-27T14:12:53.216Z,4.65
2022-07-27T14:15:25.003Z,3.88
2022-07-27T14:17:52.686Z,3.97
2022-07-27T14:20:20.462Z,4.35
2022-07-27T14:22:48.166Z,4.00
2022-07-27T14:25:15.981Z,3.67
2022-07-27T14:27:43.641Z,4.55
2022-07-27T14:30:11.590Z,4.18
2022-07-27T14:32:39.254Z,3.92
2022-07-27T14:35:08.440Z,4.38
2022-07-27T14:37:36.156Z,3.50
2022-07-27T14:40:05.013Z,3.92
2022-07-27T14:42:32.774Z,3.90
2022-07-27T14:45:00.477Z,3.83
2022-07-27T14:47:28.190Z,3.90
2022-07-27T14:49:56.244Z,3.75
2022-07-27T14:52:24.115Z,4.05
2022-07-27T14:54:52.196Z,4.28
2022-07-27T14:57:19.833Z,4.07
2022-07-27T14:59:47.442Z,3.65
2022-07-27T15:02:15.035Z,3.63
2022-07-27T15:04:42.679Z,4.03
2022-07-27T15:07:10.375Z,4.13
2022-07-27T15:09:38.011Z,4.03
2022-07-27T15:12:05.948Z,3.97
2022-07-27T15:14:33.610Z,3.60
2022-07-27T15:17:01.357Z,4.05
2022-07-27T15:19:29.705Z,3.60
2022-07-27T15:21:57.311Z,3.80
2022-07-27T15:24:24.958Z,3.67
2022-07-27T15:26:52.650Z,3.83
2022-07-27T15:29:20.365Z,4.47
2022-07-27T15:31:49.680Z,3.83
2022-07-27T15:34:17.556Z,3.53
2022-07-27T15:36:51.625Z,3.58
2022-07-27T15:39:21.558Z,3.70
2022-07-27T15:42:08.206Z,4.15
2022-07-27T15:44:37.085Z,4.22
2022-07-27T15:47:04.796Z,4.00
2022-07-27T15:49:32.572Z,3.72
2022-07-27T15:52:00.956Z,3.78
2022-07-27T15:54:33.424Z,3.85
2022-07-27T15:57:02.758Z,3.85
2022-07-27T15:59:30.394Z,3.60
2022-07-27T16:01:58.752Z,3.83
2022-07-27T16:04:27.182Z,4.35
2022-07-27T16:06:55.049Z,3.75
2022-07-27T16:09:22.709Z,3.60
2022-07-27T16:11:50.323Z,3.67
2022-07-27T16:14:17.920Z,3.67
2022-07-27T16:16:45.691Z,3.90
2022-07-27T16:19:14.372Z,4.78
2022-07-27T16:21:53.862Z,4.32
2022-07-27T16:24:23.639Z,4.00
2022-07-27T16:26:51.467Z,4.32
2022-07-27T16:29:19.410Z,4.32
2022-07-27T16:31:47.255Z,4.68
2022-07-27T16:34:14.921Z,3.90
2022-07-27T16:36:42.745Z,3.70
2022-07-27T16:39:10.718Z,3.95
2022-07-27T16:41:38.802Z,3.95
2022-07-27T16:44:06.504Z,4.07
2022-07-27T16:46:34.164Z,4.10
2022-07-27T16:49:01.890Z,4.28
2022-07-27T16:51:29.529Z,4.07
2022-07-27T16:53:57.390Z,3.78
2022-07-27T16:56:25.012Z,3.80
2022-07-27T16:58:52.671Z,4.88
2022-07-27T17:01:24.405Z,5.88
2022-07-27T17:03:54.764Z,5.47
2022-07-27T17:06:22.598Z,4.57
2022-07-27T17:08:50.252Z,4.53
2022-07-27T17:11:21.748Z,4.30
2022-07-27T17:16:17.657Z,5.50
2022-07-27T17:18:45.502Z,7.60
2022-07-27T17:21:13.396Z,5.07
2022-07-27T17:23:42.003Z,4.65
2022-07-27T17:26:10.357Z,4.30
2022-07-27T17:28:39.933Z,3.95
2022-07-27T17:31:08.707Z,4.10
2022-07-27T17:33:36.499Z,4.18
2022-07-27T17:36:04.226Z,3.85
2022-07-27T17:38:31.809Z,3.85
2022-07-27T17:40:59.634Z,3.72
2022-07-27T17:43:27.315Z,4.15
2022-07-27T17:45:55.065Z,3.80
2022-07-27T17:48:22.769Z,3.60
2022-07-27T17:50:51.910Z,4.50
2022-07-27T17:53:19.610Z,3.60
2022-07-27T17:55:47.257Z,3.75
2022-07-27T17:58:15.082Z,4.05
2022-07-27T18:00:42.775Z,4.05
2022-07-27T18:03:12.649Z,3.90
2022-07-27T18:05:40.723Z,4.38
2022-07-27T18:08:08.759Z,4.35
2022-07-27T18:10:38.743Z,3.97
2022-07-27T18:13:06.757Z,4.07
2022-07-27T18:15:47.674Z,4.20
2022-07-27T18:18:15.968Z,3.77
2022-07-27T18:20:46.191Z,3.80
2022-07-27T18:23:14.183Z,3.70
2022-07-27T18:25:41.935Z,4.03
2022-07-27T18:28:09.655Z,4.30
2022-07-27T18:30:37.698Z,3.42
2022-07-27T18:33:05.381Z,4.10
2022-07-27T18:35:33.163Z,4.40
2022-07-27T18:38:00.978Z,3.97
2022-07-27T18:40:28.819Z,4.20
2022-07-27T18:42:56.542Z,3.80
2022-07-27T18:45:34.370Z,3.53
2022-07-27T18:48:02.872Z,3.50
2022-07-27T18:50:33.356Z,4.97
2022-07-27T18:53:03.354Z,4.18
2022-07-27T18:55:31.007Z,3.80
2022-07-27T18:57:58.868Z,3.85
2022-07-27T19:00:27.475Z,3.85
2022-07-27T19:02:56.717Z,3.90
2022-07-27T19:05:40.499Z,3.87
2022-07-27T19:08:13.798Z,3.90
2022-07-27T19:10:42.949Z,4.30
2022-07-27T19:13:11.259Z,4.05
2022-07-27T19:15:39.615Z,4.00
2022-07-27T19:18:07.961Z,4.63
2022-07-27T19:20:39.099Z,3.97
2022-07-27T19:23:07.197Z,4.20
2022-07-27T19:25:34.856Z,4.20
2022-07-27T19:28:03.023Z,3.83
2022-07-27T19:30:30.824Z,3.75
2022-07-27T19:32:58.739Z,4.93
2022-07-27T19:35:26.790Z,5.18
2022-07-27T19:37:54.460Z,4.30
2022-07-27T19:43:10.080Z,4.70
2022-07-27T19:45:37.744Z,3.97
2022-07-27T19:48:06.045Z,3.50
2022-07-27T19:50:33.728Z,3.97
2022-07-27T19:53:02.004Z,4.25
2022-07-27T19:55:29.624Z,4.82
2022-07-27T19:57:57.276Z,4.20
2022-07-27T20:00:24.908Z,4.00
2022-07-27T20:02:52.744Z,3.92
2022-07-27T20:05:20.541Z,3.50
2022-07-27T20:07:48.187Z,3.95
2022-07-27T20:10:16.213Z,3.90
2022-07-27T20:12:43.809Z,3.47
2022-07-27T20:15:11.650Z,3.60
2022-07-27T20:17:40.798Z,3.33
2022-07-27T20:20:09.479Z,3.92
2022-07-27T20:22:39.254Z,4.38
2022-07-27T20:25:08.292Z,4.18
2022-07-27T20:27:36.036Z,4.15
2022-07-27T20:30:03.927Z,4.15
2022-07-27T20:32:31.618Z,4.10
2022-07-27T20:34:59.311Z,3.58
2022-07-27T20:37:26.895Z,4.07
2022-07-27T20:39:54.740Z,3.97
2022-07-27T20:42:22.354Z,3.72
2022-07-27T20:44:50.019Z,3.58
2022-07-27T20:47:17.751Z,3.90
2022-07-27T20:49:45.422Z,3.88
2022-07-27T20:52:13.054Z,3.80
2022-07-27T20:54:40.810Z,3.33
2022-07-27T20:57:08.867Z,3.45
2022-07-27T20:59:36.542Z,3.85
2022-07-27T21:02:04.304Z,3.65
2022-07-27T21:04:31.991Z,3.85
2022-07-27T21:06:59.561Z,3.90
2022-07-27T21:09:27.237Z,4.22
2022-07-27T21:11:54.812Z,3.50
2022-07-27T21:14:22.434Z,3.38
2022-07-27T21:16:50.461Z,3.70
2022-07-27T21:19:20.851Z,3.40
2022-07-27T21:21:48.707Z,4.03
2022-07-27T21:24:17.860Z,3.63
2022-07-27T21:26:48.676Z,4.18
2022-07-27T21:29:16.818Z,3.60
2022-07-27T21:31:48.715Z,4.13
2022-07-27T21:34:18.057Z,4.13
2022-07-27T21:36:46.345Z,3.78
2022-07-27T21:39:13.975Z,3.97
2022-07-27T21:41:41.657Z,3.78
2022-07-27T21:44:09.325Z,4.13
2022-07-27T21:46:37.334Z,3.65
2022-07-27T21:49:05.213Z,3.63
2022-07-27T21:51:32.977Z,4.55
2022-07-27T21:54:00.947Z,3.83
2022-07-27T21:56:28.656Z,4.13
2022-07-27T21:58:56.377Z,4.45
2022-07-27T22:01:24.084Z,4.50
2022-07-27T22:03:51.868Z,4.40
2022-07-27T22:06:19.563Z,4.50
2022-07-27T22:08:47.272Z,4.80
2022-07-27T22:11:14.958Z,4.18
2022-07-27T22:13:42.530Z,4.15
2022-07-27T22:16:12.608Z,4.40
2022-07-27T22:18:40.330Z,5.20
2022-07-27T22:21:08.770Z,4.45
2022-07-27T22:23:36.424Z,4.47
2022-07-27T22:26:04.177Z,4.68
2022-07-27T22:28:31.868Z,4.72
2022-07-27T22:31:22.255Z,4.53
2022-07-27T22:33:47.136Z,4.47
2022-07-27T22:36:15.392Z,4.90
2022-07-27T22:38:43.077Z,4.50
2022-07-27T22:41:10.943Z,4.07
2022-07-27T22:43:38.750Z,5.90
2022-07-27T22:46:06.892Z,4.97
2022-07-27T22:48:34.624Z,4.78
2022-07-27T22:51:03.001Z,4.43
2022-07-27T22:53:30.629Z,5.25
2022-07-27T22:55:58.266Z,4.85
2022-07-27T22:58:25.905Z,5.35
2022-07-27T23:00:57.492Z,5.13
2022-07-27T23:03:27.200Z,4.80
2022-07-27T23:05:54.859Z,4.45
2022-07-27T23:08:22.577Z,4.72
2022-07-27T23:10:50.366Z,4.70
2022-07-27T23:13:19.167Z,4.50
2022-07-27T23:15:47.551Z,4.72
2022-07-27T23:18:16.797Z,4.55
2022-07-27T23:20:44.935Z,4.38
2022-07-27T23:23:16.758Z,4.60
2022-07-27T23:25:45.390Z,4.07
2022-07-27T23:28:14.783Z,4.15
2022-07-27T23:30:42.521Z,4.43
2022-07-27T23:33:10.390Z,4.32
2022-07-27T23:35:38.071Z,4.38
2022-07-27T23:38:05.703Z,4.18
2022-07-27T23:40:33.426Z,3.95
2022-07-27T23:43:01.060Z,4.05
2022-07-27T23:45:28.858Z,4.28
2022-07-27T23:47:56.492Z,4.55
2022-07-27T23:50:24.189Z,4.25
2022-07-27T23:52:52.022Z,4.05
2022-07-27T23:55:19.721Z,4.40
2022-07-27T23:57:47.444Z,4.15
